This is the latest recevied weather packets stored in our database for station/object TG5ALY-15. If no packets are shown the sender has not sent any weather packets the latest 10 day(s).
| Time | Temp. | Humidity | Pressure | Rain* | Wind** | Luminosity | Snow |
|---|---|---|---|---|---|---|---|
| 1777899520 | 10.56° C | 93% | 1030.8 hPa | 0 mm | - | 79 W/m² | - |
| 1777898314 | 10.56° C | 94% | 1030.8 hPa | 0 mm | - | 50 W/m² | - |
| 1777897112 | 10° C | 94% | 1030.4 hPa | 0 mm | - | 27 W/m² | - |
| 1777895907 | 10° C | 94% | 1030.4 hPa | 0 mm | - | 12 W/m² | - |
| 1777894702 | 10° C | 95% | 1030.4 hPa | 0 mm | - | 2 W/m² | - |
| 1777893501 | 10° C | 95% | 1029.9 hPa | 0 mm | - | 0 W/m² | - |
| 1777892298 | 10° C | 95% | 1029.9 hPa | 0 mm | - | 0 W/m² | - |
| 1777891095 | 10° C | 94% | 1029.5 hPa | 0 mm | - | 0 W/m² | - |
| 1777889890 | 10.56° C | 94% | 1029.5 hPa | 0 mm | - | 0 W/m² | - |
| 1777888686 | 10.56° C | 93% | 1029.9 hPa | 0 mm | - | 0 W/m² | - |
| 1777887484 | 10.56° C | 94% | 1029.5 hPa | 0 mm | - | 0 W/m² | - |
| 1777886281 | 10.56° C | 94% | 1029.5 hPa | 0 mm | - | 0 W/m² | - |
| 1777885080 | 11.67° C | 92% | 1029.5 hPa | 0 mm | - | 0 W/m² | - |
| 1777883877 | 11.11° C | 93% | 1029.9 hPa | 0 mm | - | 0 W/m² | - |
| 1777882674 | 11.11° C | 94% | 1029.9 hPa | 0 mm | - | 0 W/m² | - |
| 1777881472 | 10.56° C | 94% | 1030.4 hPa | 0 mm | - | 0 W/m² | - |
| 1777880269 | 11.67° C | 92% | 1030.4 hPa | 0 mm | - | 0 W/m² | - |
| 1777879064 | 12.22° C | 91% | 1030.4 hPa | 0 mm | - | 0 W/m² | - |
| 1777877863 | 11.67° C | 94% | 1030.8 hPa | 0 mm | - | 0 W/m² | - |
| 1777876663 | 11.67° C | 93% | 1031.3 hPa | 0 mm | - | 0 W/m² | - |
| 1777875460 | 11.67° C | 93% | 1031.7 hPa | 0 mm | - | 0 W/m² | - |
| 1777874259 | 11.67° C | 95% | 1031.7 hPa | 0 mm | - | 0 W/m² | - |
| 1777873058 | 11.67° C | 95% | 1031.7 hPa | 0 mm | - | 0 W/m² | - |
| 1777871859 | 11.67° C | 97% | 1031.7 hPa | 0 mm | - | 0 W/m² | - |
| 1777870658 | 11.11° C | 97% | 1032.1 hPa | 0 mm | - | 0 W/m² | - |
* Rain latest hour (hover to see other rain measurements)
** Current wind speed in m/s (hover to see current wind gust speed)